Time;durP1;ratioP1;P1;durP2;ratioP2;P2;SDS_P1;SDS_P2;PMS_P1;PMS_P2;Temp;Humidity;BMP_temperature;BMP_pressure;BME280_temperature;BME280_humidity;BME280_pressure;Samples;Min_cycle;Max_cycle;Signal;HPM_P1;HPM_P2
2023/01/24 00:01:44;;;;;;;42.63;12.90;;;3.70;99.90;;;;;;5049702;28;20480;-59
2023/01/24 00:04:10;;;;;;;57.87;14.50;;;5.80;99.90;;;;;;5049465;28;20479;-59
2023/01/24 00:06:37;;;;;;;57.40;17.17;;;3.80;99.90;;;;;;5051408;28;21213;-59
2023/01/24 00:09:04;;;;;;;38.37;10.40;;;3.70;99.90;;;;;;5053061;28;20497;-59
2023/01/24 00:11:31;;;;;;;30.97;9.07;;;;;;;;;;5055351;28;20479;-59
2023/01/24 00:13:58;;;;;;;58.80;15.07;;;3.70;99.90;;;;;;5051210;28;20479;-59
2023/01/24 00:16:24;;;;;;;63.70;16.07;;;3.80;99.90;;;;;;5061785;28;21201;-59
2023/01/24 00:18:53;;;;;;;50.30;11.53;;;;;;;;;;5065900;28;20490;-59
2023/01/24 00:21:21;;;;;;;39.60;10.83;;;;;;;;;;5048837;28;20478;-59
2023/01/24 00:23:49;;;;;;;68.70;15.90;;;;;;;;;;5051956;28;20471;-59
2023/01/24 00:26:17;;;;;;;57.57;13.40;;;3.80;99.90;;;;;;5075153;28;21047;-59
2023/01/24 00:28:44;;;;;;;55.90;15.73;;;3.80;99.90;;;;;;5051601;28;20475;-59
2023/01/24 00:31:11;;;;;;;41.20;11.40;;;3.80;99.90;;;;;;5064721;28;20492;-59
2023/01/24 00:33:38;;;;;;;39.27;13.17;;;;;;;;;;5067869;28;20495;-59
2023/01/24 00:36:07;;;;;;;37.50;9.80;;;3.70;99.90;;;;;;5056408;28;20498;-59
2023/01/24 00:38:34;;;;;;;33.67;11.33;;;3.70;99.90;;;;;;5052325;28;20487;-59
2023/01/24 00:41:01;;;;;;;62.87;11.57;;;;;;;;;;5054172;28;20490;-59
2023/01/24 00:43:29;;;;;;;58.07;12.67;;;;;;;;;;5050082;28;20475;-59
2023/01/24 00:45:56;;;;;;;44.30;8.60;;;;;;;;;;5055780;28;21037;-59
2023/01/24 00:48:23;;;;;;;40.83;11.00;;;;;;;;;;5056337;28;20471;-59
2023/01/24 00:50:50;;;;;;;73.80;17.03;;;3.70;99.90;;;;;;5056040;28;20923;-59
2023/01/24 00:53:19;;;;;;;46.33;10.30;;;;;;;;;;5054084;28;20487;-59
2023/01/24 00:55:47;;;;;;;51.57;10.07;;;3.70;99.90;;;;;;5054016;28;20491;-59
2023/01/24 00:58:14;;;;;;;37.97;11.10;;;;;;;;;;5055220;28;21241;-59
2023/01/24 01:00:42;;;;;;;73.57;15.90;;;;;;;;;;5051202;28;20476;-59
2023/01/24 01:03:12;;;;;;;44.57;10.63;;;3.70;99.90;;;;;;5050667;28;21096;-59
2023/01/24 01:05:39;;;;;;;44.47;12.27;;;3.60;99.90;;;;;;5064719;28;20486;-60
2023/01/24 01:08:06;;;;;;;56.57;15.77;;;3.60;99.90;;;;;;5060311;28;20479;-59
2023/01/24 01:10:34;;;;;;;32.63;9.43;;;3.70;99.90;;;;;;5057248;28;20482;-60
2023/01/24 01:13:01;;;;;;;57.63;14.60;;;;;;;;;;5056885;28;20483;-60
2023/01/24 01:15:28;;;;;;;52.70;13.03;;;;;;;;;;5056288;28;20479;-60
2023/01/24 01:17:55;;;;;;;46.10;12.73;;;3.70;99.90;;;;;;5054419;28;20486;-60
2023/01/24 01:20:21;;;;;;;38.93;10.27;;;3.70;99.90;;;;;;5057442;28;21026;-59
2023/01/24 01:22:48;;;;;;;58.13;14.70;;;3.70;99.90;;;;;;5050378;28;20491;-59
2023/01/24 01:25:15;;;;;;;39.50;10.60;;;3.70;99.90;;;;;;5082050;28;20502;-60
2023/01/24 01:27:43;;;;;;;47.53;13.03;;;3.70;99.90;;;;;;5054293;28;20843;-59
2023/01/24 01:30:11;;;;;;;53.07;12.87;;;3.70;99.90;;;;;;5055331;28;20491;-59
2023/01/24 01:32:38;;;;;;;50.00;14.57;;;3.70;99.90;;;;;;5048682;28;20498;-59
2023/01/24 01:35:05;;;;;;;41.33;10.40;;;3.70;99.90;;;;;;5052768;28;20842;-60
2023/01/24 01:37:32;;;;;;;28.73;8.97;;;3.60;99.90;;;;;;5051560;28;20471;-60
2023/01/24 01:39:58;;;;;;;43.10;11.70;;;3.70;99.90;;;;;;5055818;28;20480;-60
2023/01/24 01:42:25;;;;;;;41.97;9.67;;;3.60;99.90;;;;;;5056142;28;20917;-60
2023/01/24 01:44:54;;;;;;;54.47;13.77;;;3.60;99.90;;;;;;5053438;28;20483;-60
2023/01/24 01:47:29;;;;;;;56.23;11.37;;;;;;;;;;5069418;28;20477;-59
2023/01/24 01:50:02;;;;;;;50.53;11.67;;;3.70;99.90;;;;;;5051817;28;20967;-60
2023/01/24 01:52:33;;;;;;;39.43;10.30;;;3.60;99.90;;;;;;5049769;28;20475;-60
2023/01/24 01:55:03;;;;;;;46.07;10.57;;;3.60;99.90;;;;;;5052500;28;20487;-60
2023/01/24 01:57:32;;;;;;;36.17;11.33;;;3.60;99.90;;;;;;5051646;28;20482;-59
2023/01/24 02:00:05;;;;;;;60.20;11.83;;;3.60;99.90;;;;;;5051516;28;20476;-59
2023/01/24 02:02:32;;;;;;;40.50;12.40;;;3.60;99.90;;;;;;5054937;28;20487;-59
2023/01/24 02:05:02;;;;;;;38.77;10.73;;;3.70;99.90;;;;;;5073733;28;20473;-59
2023/01/24 02:07:32;;;;;;;46.93;10.43;;;3.50;99.90;;;;;;5052655;28;20650;-59
2023/01/24 02:09:59;;;;;;;41.97;10.67;;;3.60;99.90;;;;;;5053359;28;20467;-59
2023/01/24 02:12:29;;;;;;;40.77;10.70;;;3.60;99.90;;;;;;5055959;28;20848;-59
2023/01/24 02:17:46;;;;;;;65.07;15.03;;;3.60;99.90;;;;;;5049741;28;20492;-59
2023/01/24 02:20:21;;;;;;;41.57;10.60;;;3.60;99.90;;;;;;5051344;28;20552;-58
2023/01/24 02:22:59;;;;;;;77.80;18.43;;;3.60;99.90;;;;;;5054206;28;21059;-58
2023/01/24 02:25:32;;;;;;;47.73;11.50;;;;;;;;;;5063448;28;20483;-59
2023/01/24 02:28:01;;;;;;;39.90;9.53;;;;;;;;;;5055234;28;20495;-59
2023/01/24 02:30:27;;;;;;;51.13;11.03;;;3.50;99.90;;;;;;5042416;28;20479;-59
2023/01/24 02:32:54;;;;;;;47.17;11.07;;;3.50;99.90;;;;;;5047834;28;20493;-59
2023/01/24 02:35:25;;;;;;;30.80;9.00;;;;;;;;;;5071572;28;20479;-59
2023/01/24 02:37:53;;;;;;;38.27;12.60;;;;;;;;;;5046787;28;20483;-59
2023/01/24 02:40:20;;;;;;;32.53;9.77;;;;;;;;;;5052770;28;20487;-59
2023/01/24 02:42:48;;;;;;;44.43;12.40;;;;;;;;;;5053008;28;20853;-59
2023/01/24 02:45:21;;;;;;;32.00;9.13;;;3.50;99.90;;;;;;5050636;28;21024;-59
2023/01/24 02:47:49;;;;;;;58.00;14.53;;;;;;;;;;5048702;28;20683;-59
2023/01/24 02:50:16;;;;;;;44.57;10.23;;;;;;;;;;5026025;28;20489;-59
2023/01/24 02:55:27;;;;;;;66.73;14.67;;;3.50;99.90;;;;;;5050194;28;21006;-59
2023/01/24 02:58:05;;;;;;;29.13;7.97;;;3.60;99.90;;;;;;5049411;28;20487;-59
2023/01/24 03:00:33;;;;;;;35.90;10.30;;;;;;;;;;5046303;28;20833;-58
2023/01/24 03:03:00;;;;;;;51.40;14.93;;;3.60;99.90;;;;;;5050542;28;20689;-58
2023/01/24 03:05:39;;;;;;;44.90;10.43;;;3.50;99.90;;;;;;5045577;28;20859;-59
2023/01/24 03:08:06;;;;;;;28.30;7.57;;;3.60;99.90;;;;;;5044832;28;20487;-58
2023/01/24 03:10:34;;;;;;;33.97;11.40;;;6.00;99.90;;;;;;5049953;28;20561;-59
2023/01/24 03:34:58;;;;;;;55.40;15.40;;;3.60;99.90;;;;;;5046813;28;20509;-58
2023/01/24 03:40:12;;;;;;;33.10;10.17;;;3.50;99.90;;;;;;5057975;28;20611;-58
2023/01/24 03:42:46;;;;;;;22.97;7.60;;;3.50;99.90;;;;;;5064091;28;20494;-59
2023/01/24 03:45:16;;;;;;;46.73;12.60;;;;;;;;;;5061058;28;20836;-58
2023/01/24 03:47:54;;;;;;;43.27;12.00;;;3.50;99.90;;;;;;5055940;28;20499;-58
2023/01/24 03:53:07;;;;;;;44.30;11.17;;;3.50;99.90;;;;;;5073634;28;20476;-59
2023/01/24 03:55:34;;;;;;;38.10;11.17;;;3.50;99.90;;;;;;5068430;28;20549;-59
2023/01/24 03:58:01;;;;;;;42.77;14.33;;;3.50;99.90;;;;;;5047147;28;20723;-59
2023/01/24 04:00:28;;;;;;;46.20;11.43;;;3.50;99.90;;;;;;5077399;28;20487;-59
2023/01/24 04:02:56;;;;;;;22.53;7.47;;;3.40;99.90;;;;;;5064329;28;20477;-59
2023/01/24 04:05:23;;;;;;;32.30;7.93;;;;;;;;;;5074025;28;20494;-59
2023/01/24 04:07:50;;;;;;;53.73;16.17;;;3.50;99.90;;;;;;5050197;28;20549;-59
2023/01/24 04:10:17;;;;;;;25.07;7.73;;;3.40;99.90;;;;;;5068346;28;21338;-59
2023/01/24 04:12:45;;;;;;;37.13;13.63;;;3.50;99.90;;;;;;5078196;28;21200;-59
2023/01/24 04:15:17;;;;;;;33.47;11.70;;;3.50;99.90;;;;;;5047002;28;20495;-59
2023/01/24 04:17:43;;;;;;;38.17;11.43;;;3.50;99.90;;;;;;5051906;28;20560;-59
2023/01/24 04:20:13;;;;;;;35.97;12.00;;;4.60;99.90;;;;;;5059012;28;20598;-59
2023/01/24 04:22:40;;;;;;;44.50;13.70;;;5.90;99.90;;;;;;5063918;28;20503;-59
2023/01/24 04:25:08;;;;;;;34.37;9.83;;;3.50;99.90;;;;;;5066667;28;20482;-59
2023/01/24 04:27:35;;;;;;;28.07;11.63;;;3.60;99.90;;;;;;5076087;28;20489;-59
2023/01/24 04:30:02;;;;;;;27.50;7.90;;;3.50;99.90;;;;;;5061507;28;20481;-59
2023/01/24 04:32:29;;;;;;;30.57;10.13;;;3.60;99.90;;;;;;5054184;28;20473;-59
2023/01/24 04:34:56;;;;;;;30.83;9.07;;;3.60;99.90;;;;;;5052703;28;20486;-59
2023/01/24 04:37:24;;;;;;;35.67;10.77;;;3.60;99.90;;;;;;5048137;28;21025;-59
2023/01/24 04:39:51;;;;;;;41.73;12.60;;;3.60;99.90;;;;;;5035617;28;20501;-59
2023/01/24 04:42:17;;;;;;;40.43;11.77;;;3.50;99.90;;;;;;5073930;28;20479;-59
2023/01/24 04:44:44;;;;;;;36.97;10.37;;;;;;;;;;5062658;28;20568;-59
2023/01/24 04:47:12;;;;;;;33.90;8.50;;;;;;;;;;5074495;28;20576;-59
2023/01/24 04:49:38;;;;;;;47.23;14.87;;;3.40;99.90;;;;;;5074556;28;20533;-59
2023/01/24 04:52:05;;;;;;;50.63;11.17;;;3.50;99.90;;;;;;5042100;28;21136;-59
2023/01/24 04:54:33;;;;;;;29.47;8.20;;;3.40;99.90;;;;;;5067244;28;20564;-59
2023/01/24 04:57:00;;;;;;;43.23;11.17;;;3.50;99.90;;;;;;5058895;28;21036;-59
2023/01/24 04:59:27;;;;;;;38.33;9.33;;;;;;;;;;5052624;28;20479;-59
2023/01/24 05:01:54;;;;;;;34.63;9.40;;;3.50;99.90;;;;;;5048671;28;20975;-59
2023/01/24 05:04:20;;;;;;;42.40;13.23;;;3.50;99.90;;;;;;5044630;28;20498;-59
2023/01/24 05:06:47;;;;;;;39.50;11.60;;;3.50;99.90;;;;;;5063911;28;21014;-59
2023/01/24 05:09:14;;;;;;;41.17;12.17;;;3.50;99.90;;;;;;5074626;28;20491;-59
2023/01/24 05:11:42;;;;;;;53.97;16.03;;;3.50;99.90;;;;;;5067819;28;20489;-59
2023/01/24 05:14:09;;;;;;;42.50;10.63;;;3.50;99.90;;;;;;5048510;28;21428;-59
2023/01/24 05:16:36;;;;;;;35.80;9.47;;;3.40;99.90;;;;;;5067262;28;20497;-59
2023/01/24 05:19:03;;;;;;;42.87;12.10;;;3.40;99.90;;;;;;5078424;28;21187;-59
2023/01/24 05:21:29;;;;;;;32.87;9.70;;;3.40;99.90;;;;;;5050204;28;20473;-59
2023/01/24 05:23:56;;;;;;;35.27;11.13;;;3.40;99.90;;;;;;5070873;28;20478;-59
2023/01/24 05:26:25;;;;;;;38.17;11.90;;;3.40;99.90;;;;;;5061478;28;20532;-59
2023/01/24 05:28:54;;;;;;;43.43;12.53;;;;;;;;;;5063292;28;20526;-59
2023/01/24 05:31:21;;;;;;;26.67;7.17;;;3.40;99.90;;;;;;5057853;28;20485;-59
2023/01/24 05:33:48;;;;;;;51.67;12.80;;;3.50;99.90;;;;;;5064054;28;20930;-59
2023/01/24 05:36:16;;;;;;;36.17;11.00;;;3.40;99.90;;;;;;5070283;28;20563;-59
2023/01/24 05:38:44;;;;;;;44.30;13.30;;;;;;;;;;5041277;28;20486;-59
2023/01/24 05:41:12;;;;;;;45.57;12.40;;;3.50;99.90;;;;;;5053236;28;20502;-59
2023/01/24 05:43:40;;;;;;;36.37;10.07;;;3.50;99.90;;;;;;5037169;28;20483;-59
2023/01/24 05:46:10;;;;;;;40.13;11.30;;;3.50;99.90;;;;;;5067103;28;20485;-59
2023/01/24 05:48:38;;;;;;;34.30;12.13;;;3.40;99.90;;;;;;5058952;28;20505;-59
2023/01/24 05:51:07;;;;;;;39.20;14.60;;;-0.30;99.90;;;;;;5062840;28;20488;-59
2023/01/24 05:53:35;;;;;;;35.87;10.77;;;;;;;;;;5071170;28;20532;-59
2023/01/24 05:56:03;;;;;;;33.93;11.13;;;;;;;;;;5046584;28;20898;-59
2023/01/24 05:58:30;;;;;;;41.53;11.63;;;;;;;;;;5067474;28;20494;-58
2023/01/24 06:00:57;;;;;;;43.67;12.70;;;;;;;;;;5064339;28;20988;-59
2023/01/24 06:03:26;;;;;;;43.90;10.13;;;;;;;;;;5043764;28;20564;-59
2023/01/24 06:05:55;;;;;;;47.57;13.10;;;3.50;99.90;;;;;;5066378;28;20545;-59
2023/01/24 06:08:22;;;;;;;28.83;7.23;;;3.40;99.90;;;;;;5054365;28;20477;-59
2023/01/24 06:10:49;;;;;;;46.27;14.33;;;3.50;99.90;;;;;;5067428;28;20475;-59
2023/01/24 06:13:16;;;;;;;46.13;12.40;;;;;;;;;;5060964;28;20874;-59
2023/01/24 06:15:43;;;;;;;50.10;16.00;;;3.60;99.90;;;;;;5052991;28;20980;-59
2023/01/24 06:18:14;;;;;;;40.87;12.37;;;3.60;99.90;;;;;;5046828;28;20535;-59
2023/01/24 06:20:43;;;;;;;53.03;17.00;;;3.60;99.90;;;;;;5064235;28;20482;-59
2023/01/24 06:23:12;;;;;;;35.33;11.13;;;;;;;;;;5062363;28;20855;-59
2023/01/24 06:25:39;;;;;;;39.67;10.77;;;;;;;;;;5048309;28;20479;-59
2023/01/24 06:28:06;;;;;;;35.57;9.67;;;3.50;99.90;;;;;;5049942;28;20471;-59
2023/01/24 06:30:34;;;;;;;36.73;10.90;;;;;;;;;;5045537;28;20523;-59
2023/01/24 06:33:11;;;;;;;37.50;11.60;;;3.50;99.90;;;;;;5044553;28;20946;-59
2023/01/24 06:35:51;;;;;;;47.37;13.67;;;3.40;99.90;;;;;;5047422;28;20483;-58
2023/01/24 06:38:20;;;;;;;38.00;10.47;;;3.40;99.90;;;;;;5035907;28;20548;-58
2023/01/24 06:40:49;;;;;;;50.83;12.30;;;3.40;99.90;;;;;;5069576;28;20596;-58
2023/01/24 06:43:16;;;;;;;62.13;12.57;;;;;;;;;;5066335;28;20490;-58
2023/01/24 06:45:43;;;;;;;53.77;15.13;;;3.40;99.90;;;;;;5057992;28;20497;-59
2023/01/24 06:48:10;;;;;;;50.27;12.50;;;3.40;99.90;;;;;;5070858;28;20478;-59
2023/01/24 06:50:37;;;;;;;50.70;14.67;;;3.40;99.90;;;;;;5038857;28;20543;-59
2023/01/24 06:53:05;;;;;;;60.73;15.87;;;3.40;99.90;;;;;;5054514;28;20548;-59
2023/01/24 06:55:32;;;;;;;31.30;10.50;;;3.40;99.90;;;;;;5052724;28;21087;-59
2023/01/24 06:58:00;;;;;;;32.30;10.30;;;3.40;99.90;;;;;;5060302;28;20489;-59
2023/01/24 07:00:28;;;;;;;41.70;10.63;;;3.40;99.90;;;;;;5066019;28;20506;-59
2023/01/24 07:02:59;;;;;;;56.90;12.97;;;;;;;;;;5069573;28;20490;-58
2023/01/24 07:05:26;;;;;;;48.77;11.53;;;;;;;;;;5061420;28;20491;-59
2023/01/24 07:07:53;;;;;;;66.77;17.87;;;3.40;99.90;;;;;;5046688;28;20489;-59
2023/01/24 07:10:22;;;;;;;46.03;12.13;;;3.40;99.90;;;;;;5054528;28;20474;-59
2023/01/24 07:12:49;;;;;;;43.57;12.90;;;;;;;;;;5061625;28;20473;-59
2023/01/24 07:15:16;;;;;;;46.50;13.40;;;;;;;;;;5046665;28;20724;-59
2023/01/24 07:17:43;;;;;;;62.83;16.87;;;3.40;99.90;;;;;;5050891;28;20491;-59
2023/01/24 07:20:12;;;;;;;37.87;12.43;;;3.40;99.90;;;;;;5037890;28;20468;-59
2023/01/24 07:22:40;;;;;;;41.83;12.53;;;3.50;99.90;;;;;;5044614;28;20491;-59
2023/01/24 07:25:13;;;;;;;42.23;13.63;;;3.40;99.90;;;;;;5038614;28;20480;-59
2023/01/24 07:27:42;;;;;;;60.67;18.30;;;3.40;99.90;;;;;;5035715;28;20474;-58
2023/01/24 07:30:12;;;;;;;38.60;10.50;;;3.40;99.90;;;;;;5066345;28;20484;-59
2023/01/24 07:32:39;;;;;;;37.60;12.77;;;3.40;99.90;;;;;;5063315;28;20550;-59
2023/01/24 07:35:07;;;;;;;68.23;17.17;;;3.40;99.90;;;;;;5056485;28;20885;-60
2023/01/24 07:37:34;;;;;;;48.53;12.40;;;3.40;99.90;;;;;;5059176;28;20486;-59
2023/01/24 07:40:01;;;;;;;61.73;16.50;;;;;;;;;;5066900;28;20472;-59
2023/01/24 07:42:28;;;;;;;43.03;13.00;;;3.50;99.90;;;;;;5049797;28;20500;-59
2023/01/24 07:44:58;;;;;;;34.47;10.23;;;;;;;;;;5046222;28;20479;-59
2023/01/24 07:47:26;;;;;;;42.90;13.40;;;3.50;99.90;;;;;;5040780;28;20482;-60
2023/01/24 07:49:53;;;;;;;55.33;15.00;;;3.50;99.90;;;;;;5059776;28;20464;-59
2023/01/24 07:52:19;;;;;;;51.93;14.67;;;3.60;99.90;;;;;;5046022;28;20558;-60
2023/01/24 07:54:46;;;;;;;48.27;14.90;;;;;;;;;;5074977;28;21498;-59
2023/01/24 07:57:15;;;;;;;41.43;12.90;;;;;;;;;;5056128;28;20489;-60
2023/01/24 07:59:42;;;;;;;62.33;17.70;;;3.50;99.90;;;;;;5043115;28;20615;-59
2023/01/24 08:02:11;;;;;;;62.77;15.87;;;3.60;99.90;;;;;;5053558;28;20598;-59
2023/01/24 08:04:38;;;;;;;61.97;15.53;;;3.60;99.90;;;;;;5052454;27;20496;-59
2023/01/24 08:07:17;;;;;;;48.03;14.03;;;3.60;99.90;;;;;;5065224;27;20560;-59
2023/01/24 08:09:44;;;;;;;73.20;19.83;;;3.60;99.90;;;;;;5035428;28;20915;-59
2023/01/24 08:12:11;;;;;;;38.13;10.97;;;;;;;;;;5050493;28;20808;-59
2023/01/24 08:14:37;;;;;;;27.53;8.47;;;3.50;99.90;;;;;;5064937;28;20513;-59
2023/01/24 08:17:04;;;;;;;53.23;15.93;;;;;;;;;;5067637;28;20473;-59
2023/01/24 08:19:32;;;;;;;39.33;10.93;;;3.60;99.90;;;;;;5075392;28;20525;-59
2023/01/24 08:21:59;;;;;;;30.33;8.03;;;;;;;;;;5046869;28;20552;-59
2023/01/24 08:24:26;;;;;;;26.43;9.37;;;3.50;99.90;;;;;;5044287;28;20475;-59
2023/01/24 08:26:53;;;;;;;45.23;13.43;;;6.00;99.90;;;;;;5051522;28;20477;-59
2023/01/24 08:29:19;;;;;;;38.80;13.10;;;3.60;99.90;;;;;;5058620;28;20871;-59
2023/01/24 08:31:48;;;;;;;70.33;18.20;;;3.70;99.90;;;;;;5079788;27;20519;-59
2023/01/24 08:34:15;;;;;;;38.00;12.67;;;3.70;99.90;;;;;;5047909;28;20486;-59
2023/01/24 08:36:43;;;;;;;74.37;17.43;;;3.70;99.90;;;;;;5044199;28;20725;-59
2023/01/24 08:39:09;;;;;;;43.73;12.80;;;3.80;99.90;;;;;;5060438;27;20508;-59
2023/01/24 08:41:36;;;;;;;57.97;13.97;;;3.80;99.90;;;;;;5076573;27;20487;-59
2023/01/24 08:44:03;;;;;;;49.17;11.80;;;3.80;99.90;;;;;;5054903;28;20489;-59
2023/01/24 08:46:30;;;;;;;72.40;17.63;;;3.80;99.90;;;;;;5069026;28;20487;-59
2023/01/24 08:48:57;;;;;;;61.07;11.77;;;;;;;;;;5042564;28;21170;-59
2023/01/24 08:51:24;;;;;;;52.93;12.70;;;3.90;99.90;;;;;;5074802;28;20477;-59
2023/01/24 08:53:52;;;;;;;58.87;12.90;;;3.90;99.90;;;;;;5042700;28;20483;-59
2023/01/24 08:56:19;;;;;;;53.80;13.10;;;3.90;99.90;;;;;;5041058;28;20557;-59
2023/01/24 08:58:45;;;;;;;92.07;17.67;;;4.00;99.90;;;;;;5072237;28;20478;-59
2023/01/24 09:01:12;;;;;;;47.07;13.00;;;4.00;99.90;;;;;;5052601;28;20528;-59
2023/01/24 09:03:39;;;;;;;57.47;13.53;;;4.00;99.90;;;;;;5056754;28;20500;-59
2023/01/24 09:06:06;;;;;;;45.10;9.03;;;4.00;99.90;;;;;;5072681;28;20602;-59
2023/01/24 09:08:33;;;;;;;44.67;9.50;;;3.90;99.90;;;;;;5065678;28;20522;-59
2023/01/24 09:11:02;;;;;;;63.57;13.17;;;3.90;99.90;;;;;;5057258;28;20481;-58
2023/01/24 09:13:29;;;;;;;46.40;8.60;;;5.20;99.90;;;;;;5050717;28;20538;-58
2023/01/24 09:15:58;;;;;;;53.47;11.47;;;4.00;99.90;;;;;;5076674;27;20523;-59
2023/01/24 09:18:26;;;;;;;45.27;11.43;;;;;;;;;;5050768;28;20469;-59
2023/01/24 09:20:52;;;;;;;64.50;13.50;;;4.00;99.90;;;;;;5080901;28;20470;-59
2023/01/24 09:23:19;;;;;;;44.37;12.07;;;4.00;99.90;;;;;;5066261;27;20502;-59
2023/01/24 09:25:52;;;;;;;64.97;14.80;;;4.00;99.90;;;;;;5079149;27;20489;-60
2023/01/24 09:28:21;;;;;;;40.43;12.00;;;;;;;;;;5053399;28;20471;-60
2023/01/24 09:30:49;;;;;;;57.47;16.43;;;4.10;99.90;;;;;;5064974;28;20494;-59
2023/01/24 09:33:17;;;;;;;40.20;10.60;;;;;;;;;;5073663;28;20465;-60
2023/01/24 09:35:50;;;;;;;53.50;12.13;;;4.10;99.90;;;;;;5051045;28;20489;-59
2023/01/24 09:38:17;;;;;;;54.77;12.20;;;4.10;99.90;;;;;;5054987;28;20480;-59
2023/01/24 09:40:51;;;;;;;46.10;11.10;;;4.10;99.90;;;;;;5050311;28;22023;-59
2023/01/24 09:43:37;;;;;;;44.33;10.73;;;4.20;99.90;;;;;;5066212;27;20489;-60
2023/01/24 09:46:14;;;;;;;44.13;11.40;;;4.20;99.90;;;;;;5071412;28;20480;-59
2023/01/24 09:48:41;;;;;;;41.87;9.60;;;;;;;;;;5049750;28;20510;-60
2023/01/24 09:51:13;;;;;;;46.80;8.93;;;4.20;99.90;;;;;;5058742;27;21370;-60
2023/01/24 09:53:42;;;;;;;47.73;13.40;;;;;;;;;;5060452;27;20664;-60
2023/01/24 09:56:14;;;;;;;54.67;11.83;;;;;;;;;;5054010;28;20472;-60
2023/01/24 09:58:44;;;;;;;54.17;12.90;;;4.30;99.90;;;;;;5037130;28;20467;-60
2023/01/24 10:01:12;;;;;;;51.77;12.97;;;4.30;99.90;;;;;;5034696;28;20544;-60
2023/01/24 10:03:40;;;;;;;66.43;15.43;;;;;;;;;;5061564;28;20515;-60
2023/01/24 10:06:14;;;;;;;55.43;12.70;;;4.40;99.90;;;;;;5058534;28;20952;-60
2023/01/24 10:08:45;;;;;;;49.20;14.57;;;;;;;;;;5047516;28;20497;-60
2023/01/24 10:11:33;;;;;;;55.07;12.00;;;4.50;99.90;;;;;;5057289;28;20510;-60
2023/01/24 10:14:16;;;;;;;40.53;10.27;;;;;;;;;;5037405;28;20479;-59
2023/01/24 10:17:05;;;;;;;59.90;14.83;;;4.50;99.90;;;;;;5041934;27;20485;-59
2023/01/24 10:19:45;;;;;;;40.50;10.17;;;;;;;;;;5068989;28;20926;-59
2023/01/24 10:22:24;;;;;;;40.97;11.13;;;;;;;;;;5074180;28;20713;-59
2023/01/24 10:24:55;;;;;;;49.47;13.60;;;4.60;99.90;;;;;;5052683;28;20471;-59
2023/01/24 10:27:27;;;;;;;41.70;12.87;;;4.60;99.90;;;;;;5041111;28;20515;-59
2023/01/24 10:29:58;;;;;;;50.70;12.50;;;;;;;;;;5042970;28;20509;-59
2023/01/24 10:32:31;;;;;;;46.33;10.10;;;;;;;;;;5038438;28;20582;-59
2023/01/24 10:35:04;;;;;;;45.63;12.30;;;4.60;99.90;;;;;;5056272;28;20475;-59
2023/01/24 10:37:37;;;;;;;53.83;11.70;;;4.60;99.90;;;;;;5045902;28;20494;-59
2023/01/24 10:40:12;;;;;;;63.13;12.23;;;4.60;99.90;;;;;;5077044;27;20524;-59
2023/01/24 10:42:39;;;;;;;36.17;9.57;;;4.50;99.90;;;;;;5061179;28;20527;-59
2023/01/24 10:45:29;;;;;;;55.93;13.77;;;4.50;99.90;;;;;;5079062;28;20504;-59
2023/01/24 10:47:59;;;;;;;49.77;13.87;;;4.50;99.90;;;;;;5034062;28;20503;-59
2023/01/24 10:50:34;;;;;;;38.43;9.10;;;4.60;99.90;;;;;;5057096;27;20891;-59
2023/01/24 10:53:13;;;;;;;47.67;12.03;;;;;;;;;;5066639;27;21030;-59
2023/01/24 10:55:40;;;;;;;49.20;12.93;;;;;;;;;;5058369;28;20511;-59
2023/01/24 10:58:21;;;;;;;36.33;11.10;;;4.70;99.90;;;;;;5032650;28;20633;-59
2023/01/24 11:00:57;;;;;;;74.27;18.93;;;4.70;99.90;;;;;;5055332;28;20487;-59
2023/01/24 11:03:26;;;;;;;39.97;11.80;;;;;;;;;;5054415;28;20730;-59
2023/01/24 11:05:55;;;;;;;46.80;14.50;;;4.70;99.90;;;;;;5070447;28;20600;-59
2023/01/24 11:08:22;;;;;;;35.80;9.30;;;;;;;;;;5065925;28;20491;-59
2023/01/24 11:10:55;;;;;;;54.70;15.50;;;4.70;99.90;;;;;;5046118;28;21397;-60
2023/01/24 11:13:33;;;;;;;48.50;12.07;;;4.70;99.90;;;;;;5055556;28;20841;-59
2023/01/24 11:16:21;;;;;;;53.23;12.43;;;4.80;99.90;;;;;;5047461;28;20471;-59
2023/01/24 11:18:50;;;;;;;80.17;18.20;;;4.80;99.90;;;;;;5054312;28;20484;-60
2023/01/24 11:21:19;;;;;;;43.43;12.70;;;4.80;99.90;;;;;;5042256;28;20553;-59
2023/01/24 11:23:58;;;;;;;59.87;15.53;;;4.80;99.90;;;;;;5057793;28;20499;-59
2023/01/24 11:26:27;;;;;;;48.57;14.90;;;4.90;99.90;;;;;;5043932;28;20475;-59
2023/01/24 11:28:59;;;;;;;46.33;14.87;;;4.90;99.90;;;;;;5055579;28;20486;-59
2023/01/24 11:31:36;;;;;;;40.00;12.17;;;4.80;99.90;;;;;;5055708;28;20494;-59
2023/01/24 11:34:25;;;;;;;38.63;10.80;;;4.80;99.90;;;;;;5062473;28;20494;-60
2023/01/24 11:37:01;;;;;;;57.70;16.20;;;4.70;99.90;;;;;;5066436;27;20476;-60
2023/01/24 11:39:42;;;;;;;35.40;9.57;;;4.70;99.90;;;;;;5036317;28;20480;-60
2023/01/24 11:42:18;;;;;;;71.23;16.20;;;4.70;99.90;;;;;;5049500;28;20532;-60
2023/01/24 11:45:00;;;;;;;47.30;9.27;;;;;;;;;;5067672;28;20481;-60
2023/01/24 11:47:34;;;;;;;42.90;10.57;;;4.70;99.90;;;;;;5067187;28;20475;-60
2023/01/24 11:50:09;;;;;;;45.50;13.17;;;;;;;;;;5040399;28;20715;-60
2023/01/24 11:52:46;;;;;;;43.60;12.50;;;;;;;;;;5064978;28;21082;-60
2023/01/24 11:55:20;;;;;;;32.47;6.63;;;4.90;99.90;;;;;;5044890;28;20469;-59
2023/01/24 11:57:57;;;;;;;52.57;16.27;;;4.90;99.90;;;;;;5058966;28;20490;-59
2023/01/24 12:00:34;;;;;;;35.13;11.77;;;4.90;99.90;;;;;;5033596;28;20562;-59
2023/01/24 12:03:25;;;;;;;45.17;12.27;;;4.90;99.90;;;;;;5053984;28;20475;-59
2023/01/24 12:06:00;;;;;;;63.77;15.40;;;4.90;99.90;;;;;;5045320;28;21014;-60
2023/01/24 12:08:46;;;;;;;48.53;10.40;;;4.80;99.90;;;;;;5070829;28;20597;-59
2023/01/24 12:11:21;;;;;;;33.63;7.97;;;4.80;99.90;;;;;;5047394;28;20483;-59
2023/01/24 12:13:56;;;;;;;85.03;16.60;;;4.80;99.90;;;;;;5067419;28;20510;-59
2023/01/24 12:16:42;;;;;;;81.30;17.17;;;4.80;99.90;;;;;;5075358;27;20997;-59
2023/01/24 12:19:30;;;;;;;53.27;13.03;;;4.90;99.90;;;;;;5074613;28;20584;-59
2023/01/24 12:21:58;;;;;;;32.73;9.00;;;4.80;99.90;;;;;;5058031;27;20489;-59
2023/01/24 12:24:28;;;;;;;42.53;13.30;;;4.90;99.90;;;;;;5057675;27;21208;-59
2023/01/24 12:26:59;;;;;;;33.87;9.47;;;4.90;99.90;;;;;;5077084;27;20501;-59
2023/01/24 12:29:29;;;;;;;47.17;13.10;;;;;;;;;;5052935;28;20475;-59
2023/01/24 12:32:01;;;;;;;39.90;8.70;;;4.80;99.90;;;;;;5069789;28;20485;-59
2023/01/24 12:34:43;;;;;;;43.23;12.60;;;4.80;99.90;;;;;;5070914;28;20469;-59
2023/01/24 12:37:14;;;;;;;57.27;11.07;;;;;;;;;;5080392;27;21421;-59
2023/01/24 12:39:51;;;;;;;81.67;18.33;;;4.80;99.90;;;;;;5048295;28;20517;-59
2023/01/24 12:42:22;;;;;;;46.17;10.90;;;4.80;99.90;;;;;;5051092;28;20889;-59
2023/01/24 12:44:53;;;;;;;69.23;16.20;;;4.80;99.90;;;;;;5060187;28;20483;-59
2023/01/24 12:47:31;;;;;;;57.60;12.23;;;4.80;99.90;;;;;;5082054;27;20484;-59
2023/01/24 12:50:14;;;;;;;58.37;9.83;;;4.70;99.90;;;;;;5056238;28;20487;-59
2023/01/24 12:52:44;;;;;;;71.43;17.67;;;;;;;;;;5075423;28;20503;-59
2023/01/24 12:55:15;;;;;;;40.13;13.13;;;4.70;99.90;;;;;;5053706;28;20672;-59
2023/01/24 12:57:46;;;;;;;42.20;14.10;;;4.70;99.90;;;;;;5066833;28;20516;-59
2023/01/24 13:00:17;;;;;;;42.70;8.47;;;;;;;;;;5058586;28;20477;-59
2023/01/24 13:03:10;;;;;;;52.67;15.57;;;4.70;99.90;;;;;;5045917;28;20564;-59
2023/01/24 13:05:48;;;;;;;35.00;11.00;;;4.70;99.90;;;;;;4997527;28;20984;-59
2023/01/24 13:08:29;;;;;;;40.33;10.20;;;4.70;99.90;;;;;;5043991;28;20474;-59
2023/01/24 13:11:08;;;;;;;37.70;11.77;;;4.70;99.90;;;;;;5060094;28;20485;-59
2023/01/24 13:13:40;;;;;;;36.60;11.20;;;4.70;99.90;;;;;;5054308;28;20505;-59
2023/01/24 13:16:25;;;;;;;38.13;12.67;;;4.70;99.90;;;;;;5043100;28;20480;-59
2023/01/24 13:18:58;;;;;;;32.43;10.27;;;4.70;99.90;;;;;;5027733;28;20486;-60
2023/01/24 13:21:35;;;;;;;36.00;9.67;;;4.70;99.90;;;;;;5054053;28;20480;-60
2023/01/24 13:24:12;;;;;;;51.97;14.80;;;;;;;;;;5047309;28;20485;-60
2023/01/24 13:26:53;;;;;;;62.87;13.53;;;4.80;99.90;;;;;;5061866;28;20491;-60
2023/01/24 13:29:32;;;;;;;51.07;11.63;;;4.80;99.90;;;;;;5054433;28;20482;-60
2023/01/24 13:32:07;;;;;;;33.30;7.57;;;4.80;99.90;;;;;;5043318;28;20483;-60
2023/01/24 13:34:36;;;;;;;39.80;9.03;;;4.80;99.90;;;;;;5050208;28;20567;-60
2023/01/24 13:37:05;;;;;;;51.53;11.70;;;4.80;99.90;;;;;;5055897;28;20486;-60
2023/01/24 13:39:35;;;;;;;45.90;10.93;;;4.80;99.90;;;;;;5056995;28;20475;-59
2023/01/24 13:42:04;;;;;;;40.20;13.33;;;4.90;99.90;;;;;;5053547;28;20475;-60
2023/01/24 13:44:33;;;;;;;32.53;9.40;;;4.90;99.90;;;;;;5046326;28;20477;-60
2023/01/24 13:47:23;;;;;;;40.97;13.77;;;4.90;99.90;;;;;;5056256;28;20755;-60
2023/01/24 13:50:12;;;;;;;37.43;12.80;;;4.80;99.90;;;;;;5053575;28;20480;-60